Time;durP1;ratioP1;P1;durP2;ratioP2;P2;SDS_P1;SDS_P2;PMS_P1;PMS_P2;Temp;Humidity;BMP_temperature;BMP_pressure;BME280_temperature;BME280_humidity;BME280_pressure;Samples;Min_cycle;Max_cycle;Signal;HPM_P1;HPM_P2
2022/10/27 00:01:21;;;;;;;10.90;3.38;;;14.70;99.90;;;;;;5132026;27;20030;-56
2022/10/27 00:03:50;;;;;;;15.48;3.53;;;14.70;99.90;;;;;;5132055;27;20031;-51
2022/10/27 00:06:15;;;;;;;12.65;4.20;;;14.60;99.90;;;;;;5131708;27;20424;-52
2022/10/27 00:08:41;;;;;;;16.33;4.40;;;14.60;99.90;;;;;;5131915;27;20107;-55
2022/10/27 00:11:07;;;;;;;12.85;4.25;;;14.50;99.90;;;;;;5132030;27;20027;-53
2022/10/27 00:13:33;;;;;;;10.15;3.88;;;14.40;99.90;;;;;;5131892;27;20027;-54
2022/10/27 00:16:01;;;;;;;10.45;3.78;;;14.40;99.90;;;;;;5132033;27;20035;-52
2022/10/27 00:18:27;;;;;;;15.93;4.65;;;14.30;99.90;;;;;;5131773;27;20102;-52
2022/10/27 00:21:00;;;;;;;15.25;4.57;;;14.30;99.90;;;;;;5129736;28;20051;-50
2022/10/27 00:23:26;;;;;;;16.90;5.10;;;14.30;99.90;;;;;;5130992;27;20031;-49
2022/10/27 00:25:55;;;;;;;12.00;4.45;;;14.20;99.90;;;;;;5131855;27;20394;-53
2022/10/27 00:28:22;;;;;;;10.65;4.32;;;14.20;99.90;;;;;;5113097;28;20031;-58
2022/10/27 00:30:47;;;;;;;10.88;4.88;;;14.20;99.90;;;;;;5131903;27;20066;-54
2022/10/27 00:33:13;;;;;;;11.23;4.50;;;14.20;99.90;;;;;;5131515;27;20446;-48
2022/10/27 00:35:39;;;;;;;14.32;4.72;;;14.20;99.90;;;;;;5127661;28;20038;-54
2022/10/27 00:38:04;;;;;;;15.77;4.70;;;14.20;99.90;;;;;;5121505;28;20019;-55
2022/10/27 00:40:36;;;;;;;13.25;4.68;;;14.20;99.90;;;;;;5131804;28;20038;-54
2022/10/27 00:43:01;;;;;;;16.98;4.43;;;14.30;99.90;;;;;;5131769;28;20026;-53
2022/10/27 00:45:27;;;;;;;13.93;4.82;;;14.40;99.90;;;;;;5131408;27;20019;-52
2022/10/27 00:47:53;;;;;;;14.38;4.63;;;14.40;99.90;;;;;;5133193;27;20487;-52
2022/10/27 00:50:22;;;;;;;11.32;4.57;;;14.50;99.90;;;;;;5135644;27;20043;-52
2022/10/27 00:52:53;;;;;;;12.60;3.97;;;14.50;99.90;;;;;;5134998;27;20023;-52
2022/10/27 00:55:35;;;;;;;10.82;3.92;;;14.40;99.90;;;;;;5135684;27;20053;-51
2022/10/27 00:58:05;;;;;;;11.45;3.50;;;14.40;99.90;;;;;;5135444;27;20015;-55
2022/10/27 01:00:31;;;;;;;13.52;4.20;;;14.40;99.90;;;;;;5135403;27;20467;-52
2022/10/27 01:02:57;;;;;;;9.35;3.72;;;14.40;99.90;;;;;;5135366;27;20030;-51
2022/10/27 01:05:28;;;;;;;10.23;3.78;;;14.40;99.90;;;;;;5135327;27;20114;-52
2022/10/27 01:07:57;;;;;;;7.70;3.50;;;14.30;99.90;;;;;;5131372;27;20043;-51
2022/10/27 01:10:24;;;;;;;14.70;4.10;;;14.30;99.90;;;;;;5124879;27;20060;-48
2022/10/27 01:12:50;;;;;;;10.98;3.75;;;14.40;99.90;;;;;;5135152;27;20027;-52
2022/10/27 01:15:16;;;;;;;8.13;3.38;;;14.40;99.90;;;;;;5135061;27;20023;-55
2022/10/27 01:17:45;;;;;;;13.43;3.47;;;14.40;99.90;;;;;;5125386;27;20495;-48
2022/10/27 01:20:49;;;;;;;14.55;3.13;;;14.40;99.90;;;;;;5135322;27;20023;-54
2022/10/27 01:23:28;;;;;;;9.90;3.33;;;14.40;99.90;;;;;;5130215;27;20023;-53
2022/10/27 01:26:27;;;;;;;10.90;3.25;;;14.50;99.90;;;;;;5135265;27;20025;-51
2022/10/27 01:28:53;;;;;;;14.60;3.58;;;14.60;99.90;;;;;;5110456;27;20092;-52
2022/10/27 01:31:27;;;;;;;11.20;3.13;;;14.60;99.90;;;;;;5135014;27;20031;-51
2022/10/27 01:34:11;;;;;;;12.40;3.50;;;14.70;99.90;;;;;;5108775;27;20015;-51
2022/10/27 01:36:43;;;;;;;14.60;4.25;;;14.70;99.90;;;;;;5122761;27;20027;-52
2022/10/27 01:39:18;;;;;;;11.32;3.15;;;14.80;99.90;;;;;;5133415;27;20027;-48
2022/10/27 01:41:50;;;;;;;10.52;3.03;;;14.80;99.90;;;;;;5134799;27;20034;-54
2022/10/27 01:44:22;;;;;;;14.93;3.38;;;14.90;99.90;;;;;;5134364;27;20019;-48
2022/10/27 01:46:49;;;;;;;9.40;3.30;;;14.90;99.90;;;;;;5134937;27;20078;-50
2022/10/27 01:49:14;;;;;;;10.85;3.25;;;15.00;99.90;;;;;;5134476;27;20483;-50
2022/10/27 01:51:40;;;;;;;12.30;3.35;;;15.10;99.90;;;;;;5130898;27;20034;-53
2022/10/27 01:54:06;;;;;;;14.50;3.40;;;15.10;99.90;;;;;;5127832;27;20117;-49
2022/10/27 01:56:44;;;;;;;10.38;3.05;;;15.10;99.90;;;;;;5116027;27;20443;-50
2022/10/27 01:59:24;;;;;;;15.35;3.42;;;15.10;99.90;;;;;;5133251;27;20035;-53
2022/10/27 02:01:59;;;;;;;11.60;2.95;;;15.10;99.90;;;;;;5134492;27;20015;-55
2022/10/27 02:04:56;;;;;;;7.68;3.42;;;15.10;99.90;;;;;;5134315;27;20050;-53
2022/10/27 02:07:42;;;;;;;12.73;3.20;;;15.10;99.90;;;;;;5134262;27;20134;-49
2022/10/27 02:10:24;;;;;;;12.88;2.95;;;15.00;99.90;;;;;;5134059;27;20030;-49
2022/10/27 02:12:51;;;;;;;12.32;3.78;;;15.00;99.90;;;;;;5134078;27;20093;-48
2022/10/27 02:15:20;;;;;;;9.57;3.70;;;14.90;99.90;;;;;;5133824;27;20024;-53
2022/10/27 02:17:47;;;;;;;14.82;3.75;;;14.90;99.90;;;;;;5134110;27;20114;-50
2022/10/27 02:20:23;;;;;;;12.00;3.50;;;14.80;99.90;;;;;;5132787;27;20083;-53
2022/10/27 02:22:52;;;;;;;13.00;3.50;;;14.80;99.90;;;;;;5127778;27;20476;-50
2022/10/27 02:25:23;;;;;;;7.45;3.67;;;14.80;99.90;;;;;;5133982;27;20019;-49
2022/10/27 02:27:52;;;;;;;13.63;3.50;;;14.80;99.90;;;;;;5133763;27;20023;-51
2022/10/27 02:30:18;;;;;;;9.82;3.72;;;14.80;99.90;;;;;;5123504;27;20034;-55
2022/10/27 02:32:45;;;;;;;13.90;4.22;;;14.80;99.90;;;;;;5126630;27;20028;-55
2022/10/27 02:35:13;;;;;;;8.85;3.40;;;14.80;99.90;;;;;;5133690;27;20026;-55
2022/10/27 02:37:40;;;;;;;13.20;3.53;;;14.80;99.90;;;;;;5105394;27;20632;-52
2022/10/27 02:40:07;;;;;;;12.98;3.42;;;14.90;99.90;;;;;;5133675;27;20482;-51
2022/10/27 02:42:33;;;;;;;15.80;3.42;;;14.90;99.90;;;;;;5133378;27;20403;-57
2022/10/27 02:44:58;;;;;;;11.57;3.58;;;14.90;99.90;;;;;;5133352;27;20036;-54
2022/10/27 02:47:24;;;;;;;10.13;3.25;;;15.00;99.90;;;;;;5133461;27;20110;-56
2022/10/27 02:49:49;;;;;;;10.68;3.50;;;15.00;99.90;;;;;;5133304;27;20077;-51
2022/10/27 02:52:16;;;;;;;11.10;3.05;;;15.00;99.90;;;;;;5127923;27;20019;-51
2022/10/27 02:54:46;;;;;;;7.97;3.15;;;15.00;99.90;;;;;;5110377;28;20397;-55
2022/10/27 02:57:19;;;;;;;7.65;2.90;;;15.00;99.90;;;;;;5115954;27;20490;-50
2022/10/27 02:59:45;;;;;;;13.90;2.90;;;14.90;99.90;;;;;;5121010;27;20027;-53
2022/10/27 03:02:10;;;;;;;13.30;3.25;;;14.90;99.90;;;;;;5125403;27;20024;-53
2022/10/27 03:04:36;;;;;;;9.73;2.80;;;15.00;99.90;;;;;;5126555;27;20019;-56
2022/10/27 03:07:02;;;;;;;7.55;3.72;;;15.00;99.90;;;;;;5132786;27;20019;-50
2022/10/27 03:09:28;;;;;;;11.88;3.22;;;14.90;99.90;;;;;;5133022;27;20038;-60
2022/10/27 03:11:54;;;;;;;12.88;3.10;;;15.00;99.90;;;;;;5118241;27;20019;-56
2022/10/27 03:14:19;;;;;;;9.75;3.03;;;15.00;99.90;;;;;;5132851;27;20027;-55
2022/10/27 03:16:45;;;;;;;11.40;3.17;;;15.00;99.90;;;;;;5132865;27;20023;-55
2022/10/27 03:19:10;;;;;;;14.68;3.10;;;15.00;99.90;;;;;;5132817;27;20160;-52
2022/10/27 03:21:36;;;;;;;12.80;2.88;;;15.00;99.90;;;;;;5120151;27;20028;-52
2022/10/27 03:24:02;;;;;;;10.43;2.60;;;15.00;99.90;;;;;;5131702;27;20023;-53
2022/10/27 03:26:27;;;;;;;13.60;3.05;;;15.00;99.90;;;;;;5132696;27;20450;-53
2022/10/27 03:28:53;;;;;;;11.23;2.88;;;15.00;99.90;;;;;;5117835;27;20038;-52
2022/10/27 03:31:18;;;;;;;7.93;2.45;;;15.00;99.90;;;;;;5132608;27;20030;-54
2022/10/27 03:33:44;;;;;;;11.45;2.90;;;15.00;99.90;;;;;;5132435;27;20055;-52
2022/10/27 03:36:10;;;;;;;10.00;2.80;;;15.00;99.90;;;;;;5132314;27;20540;-49
2022/10/27 03:38:36;;;;;;;14.80;3.15;;;15.10;99.90;;;;;;5132458;27;20112;-52
2022/10/27 03:41:02;;;;;;;13.77;3.15;;;15.10;99.90;;;;;;5125118;27;20024;-55
2022/10/27 03:43:28;;;;;;;8.13;2.90;;;15.10;99.90;;;;;;5111711;28;20023;-56
2022/10/27 03:45:54;;;;;;;12.57;3.25;;;15.00;99.90;;;;;;5111484;28;20046;-50
2022/10/27 03:48:19;;;;;;;13.27;3.22;;;15.10;99.90;;;;;;5111716;28;20031;-48
2022/10/27 03:50:47;;;;;;;9.77;3.13;;;15.20;99.90;;;;;;5111147;28;20035;-52
2022/10/27 03:53:13;;;;;;;14.95;3.45;;;15.20;99.90;;;;;;5113981;27;20031;-51
2022/10/27 03:55:39;;;;;;;13.23;2.97;;;15.20;99.90;;;;;;5111760;28;20032;-51
2022/10/27 03:58:04;;;;;;;8.93;3.20;;;15.20;99.90;;;;;;5111365;28;20016;-49
2022/10/27 04:00:31;;;;;;;12.57;2.80;;;15.20;99.90;;;;;;5111331;28;20031;-51
2022/10/27 04:02:57;;;;;;;7.53;2.50;;;15.20;99.90;;;;;;5113337;27;20031;-49
2022/10/27 04:05:23;;;;;;;7.43;2.72;;;15.20;99.90;;;;;;5131916;27;20391;-49
2022/10/27 04:07:49;;;;;;;10.65;2.63;;;15.20;99.90;;;;;;5131521;27;20519;-50
2022/10/27 04:10:15;;;;;;;10.18;2.47;;;15.30;99.90;;;;;;5132063;27;20027;-53
2022/10/27 04:12:52;;;;;;;6.72;2.25;;;15.30;99.90;;;;;;5132107;27;20497;-56
2022/10/27 04:15:18;;;;;;;11.02;2.78;;;15.30;99.90;;;;;;5131987;27;20029;-57
2022/10/27 04:17:45;;;;;;;7.22;2.50;;;15.40;99.90;;;;;;5131949;27;20034;-57
2022/10/27 04:20:11;;;;;;;9.45;2.42;;;15.40;99.90;;;;;;5131872;27;20084;-48
2022/10/27 04:22:36;;;;;;;13.40;2.40;;;15.40;99.90;;;;;;5120749;27;20039;-49
2022/10/27 04:25:02;;;;;;;6.75;2.35;;;15.40;99.90;;;;;;5131627;27;20028;-50
2022/10/27 04:27:28;;;;;;;10.85;2.67;;;15.40;99.90;;;;;;5131891;28;20072;-49
2022/10/27 04:29:53;;;;;;;4.97;2.28;;;15.40;99.90;;;;;;5131849;28;20035;-53
2022/10/27 04:32:19;;;;;;;10.15;2.45;;;15.40;99.90;;;;;;5131519;27;20364;-48
2022/10/27 04:34:45;;;;;;;5.28;2.15;;;15.40;99.90;;;;;;5131601;27;20114;-52
2022/10/27 04:37:10;;;;;;;12.27;2.00;;;15.40;99.90;;;;;;5123604;28;20019;-50
2022/10/27 04:39:36;;;;;;;6.28;2.33;;;15.30;99.90;;;;;;5131728;28;20035;-52
2022/10/27 04:42:01;;;;;;;10.20;2.60;;;15.40;99.90;;;;;;5131505;28;20055;-49
2022/10/27 04:44:27;;;;;;;9.73;2.30;;;15.40;99.90;;;;;;5131706;28;20052;-51
2022/10/27 04:46:52;;;;;;;10.15;2.53;;;15.40;99.90;;;;;;5131499;27;20015;-49
2022/10/27 04:49:18;;;;;;;11.82;2.10;;;15.40;99.90;;;;;;5131386;27;20114;-54
2022/10/27 04:51:44;;;;;;;5.65;2.30;;;15.50;99.90;;;;;;5130645;27;20015;-56
2022/10/27 04:54:09;;;;;;;6.93;2.22;;;15.50;99.90;;;;;;5131314;28;20390;-49
2022/10/27 04:56:35;;;;;;;9.55;2.58;;;15.50;99.90;;;;;;5131563;28;20073;-52
2022/10/27 04:59:00;;;;;;;7.53;2.03;;;15.40;99.90;;;;;;5131400;27;20030;-54
2022/10/27 05:01:26;;;;;;;5.88;1.95;;;15.40;99.90;;;;;;5127746;28;20112;-49
2022/10/27 05:03:51;;;;;;;6.25;1.98;;;15.50;99.90;;;;;;5120732;28;20026;-49
2022/10/27 05:06:17;;;;;;;8.77;2.30;;;15.50;99.90;;;;;;5131312;28;20027;-52
2022/10/27 05:08:43;;;;;;;8.55;2.30;;;15.60;99.90;;;;;;5131297;27;20501;-49
2022/10/27 05:11:08;;;;;;;13.70;2.20;;;15.60;99.90;;;;;;5131646;27;20100;-57
2022/10/27 05:13:34;;;;;;;10.98;2.95;;;15.60;99.90;;;;;;5131327;28;20029;-50
2022/10/27 05:16:01;;;;;;;11.70;2.05;;;15.70;99.90;;;;;;5131562;27;20370;-51
2022/10/27 05:18:27;;;;;;;5.22;1.88;;;15.70;99.90;;;;;;5131254;28;20094;-51
2022/10/27 05:20:53;;;;;;;7.25;1.95;;;15.70;99.90;;;;;;5123284;28;20496;-51
2022/10/27 05:23:18;;;;;;;7.78;2.25;;;15.70;99.90;;;;;;5126639;27;20023;-51
2022/10/27 05:25:44;;;;;;;10.40;2.40;;;15.80;99.90;;;;;;5128900;28;20086;-53
2022/10/27 05:28:10;;;;;;;7.03;1.90;;;15.80;99.90;;;;;;5117680;28;20054;-48
2022/10/27 05:30:36;;;;;;;12.00;2.45;;;15.90;99.90;;;;;;5125657;28;20027;-48
2022/10/27 05:33:03;;;;;;;12.90;2.17;;;15.90;99.90;;;;;;5122636;27;20023;-50
2022/10/27 05:35:29;;;;;;;8.75;2.50;;;15.90;99.90;;;;;;5133461;27;20027;-50
2022/10/27 05:37:55;;;;;;;7.63;2.30;;;15.90;99.90;;;;;;5124257;27;20019;-49
2022/10/27 05:40:20;;;;;;;7.03;1.92;;;15.90;99.90;;;;;;5134675;27;20031;-49
2022/10/27 05:42:53;;;;;;;8.77;2.42;;;15.90;99.90;;;;;;5123081;27;20027;-53
2022/10/27 05:45:20;;;;;;;7.18;2.20;;;15.90;99.90;;;;;;5134675;27;20484;-51
2022/10/27 05:47:46;;;;;;;9.75;2.58;;;16.00;99.90;;;;;;5122268;27;20028;-55
2022/10/27 05:50:12;;;;;;;11.10;2.30;;;15.90;99.90;;;;;;5134806;27;20035;-52
2022/10/27 05:52:38;;;;;;;7.35;1.83;;;16.00;99.90;;;;;;5121714;27;20015;-48
2022/10/27 05:55:04;;;;;;;9.35;2.17;;;16.00;99.90;;;;;;5134723;27;20056;-52
2022/10/27 05:57:29;;;;;;;9.60;2.47;;;16.00;99.90;;;;;;5120166;27;20121;-53
2022/10/27 05:59:55;;;;;;;8.55;2.28;;;16.00;99.90;;;;;;5134580;27;20426;-56
2022/10/27 06:02:20;;;;;;;9.88;2.50;;;16.00;99.90;;;;;;5118483;27;20110;-56
2022/10/27 06:04:46;;;;;;;9.90;2.60;;;16.00;99.90;;;;;;5131345;27;20023;-56
2022/10/27 06:07:11;;;;;;;9.85;2.00;;;16.10;99.90;;;;;;5129100;27;20084;-49
2022/10/27 06:09:37;;;;;;;9.05;2.22;;;16.00;99.90;;;;;;5133966;27;20035;-49
2022/10/27 06:12:03;;;;;;;8.30;2.20;;;16.00;99.90;;;;;;5128188;27;20023;-51
2022/10/27 06:14:28;;;;;;;7.43;2.10;;;16.00;99.90;;;;;;5134229;27;20102;-54
2022/10/27 06:16:54;;;;;;;9.57;2.38;;;16.00;99.90;;;;;;5120553;27;20016;-52
2022/10/27 06:19:20;;;;;;;9.82;2.33;;;16.00;99.90;;;;;;5113410;28;20027;-51
2022/10/27 06:21:45;;;;;;;8.15;2.20;;;15.90;99.90;;;;;;5113319;28;20042;-48
2022/10/27 06:24:11;;;;;;;10.18;2.45;;;15.90;99.90;;;;;;5110967;28;20027;-48
2022/10/27 06:26:36;;;;;;;7.47;2.25;;;15.90;99.90;;;;;;5113230;28;20031;-51
2022/10/27 06:29:02;;;;;;;12.18;2.65;;;15.90;99.90;;;;;;5113107;28;20035;-52
2022/10/27 06:31:28;;;;;;;7.75;2.22;;;15.80;99.90;;;;;;5113207;28;20422;-51
2022/10/27 06:33:53;;;;;;;19.13;3.47;;;15.80;99.90;;;;;;5112964;28;20012;-51
2022/10/27 06:36:19;;;;;;;7.78;2.35;;;15.70;99.90;;;;;;5113263;28;20019;-54
2022/10/27 06:38:45;;;;;;;8.73;1.98;;;15.80;99.90;;;;;;5113141;28;20028;-49
2022/10/27 06:41:10;;;;;;;9.50;2.40;;;15.80;99.90;;;;;;5118296;27;20151;-49
2022/10/27 06:43:36;;;;;;;9.85;2.22;;;15.80;99.90;;;;;;5130371;27;20019;-52
2022/10/27 06:46:02;;;;;;;9.35;2.40;;;15.80;99.90;;;;;;5112067;28;20034;-49
2022/10/27 06:48:27;;;;;;;10.32;2.83;;;15.80;99.90;;;;;;5112892;28;20358;-49
2022/10/27 06:50:53;;;;;;;7.70;2.20;;;15.80;99.90;;;;;;5112418;28;20043;-52
2022/10/27 06:53:18;;;;;;;11.52;3.30;;;15.80;99.90;;;;;;5112782;28;20012;-51
2022/10/27 06:55:44;;;;;;;9.43;2.58;;;15.80;99.90;;;;;;5112496;28;20031;-49
2022/10/27 06:58:10;;;;;;;11.27;3.10;;;15.80;99.90;;;;;;5112605;28;20071;-53
2022/10/27 07:00:36;;;;;;;8.48;2.15;;;15.80;99.90;;;;;;5112397;28;20028;-49
2022/10/27 07:03:09;;;;;;;10.25;2.90;;;15.80;99.90;;;;;;5115270;27;20043;-54
2022/10/27 07:05:35;;;;;;;16.33;3.70;;;15.80;99.90;;;;;;5133058;27;20032;-51
2022/10/27 07:08:01;;;;;;;8.63;2.58;;;15.80;99.90;;;;;;5132803;27;20085;-52
2022/10/27 07:10:26;;;;;;;12.57;2.50;;;15.80;99.90;;;;;;5132956;27;20052;-57
2022/10/27 07:12:56;;;;;;;7.03;2.70;;;15.80;99.90;;;;;;5132971;27;20031;-52
2022/10/27 07:15:22;;;;;;;;;;;15.70;99.90;;;;;;5105031;27;20529;-48
2022/10/27 07:17:53;;;;;;;12.48;3.17;;;15.80;99.90;;;;;;5126759;27;19903;-58
2022/10/27 07:20:18;;;;;;;11.30;3.17;;;15.80;99.90;;;;;;5132796;27;20023;-48
2022/10/27 07:22:44;;;;;;;13.77;2.53;;;15.80;99.90;;;;;;5132657;27;20027;-53
2022/10/27 07:25:09;;;;;;;8.10;2.42;;;15.80;99.90;;;;;;5132644;27;20047;-54
2022/10/27 07:27:35;;;;;;;13.45;3.35;;;15.80;99.90;;;;;;5132637;27;20054;-49
2022/10/27 07:30:01;;;;;;;8.77;2.53;;;15.80;99.90;;;;;;5130448;27;20059;-49
2022/10/27 07:32:26;;;;;;;7.35;2.40;;;15.90;99.90;;;;;;5112000;28;20059;-48
2022/10/27 07:34:52;;;;;;;10.43;2.80;;;15.90;99.90;;;;;;5111874;28;20031;-48
2022/10/27 07:37:17;;;;;;;15.05;3.08;;;15.90;99.90;;;;;;5111808;28;20011;-49
2022/10/27 07:39:43;;;;;;;20.17;3.10;;;15.90;99.90;;;;;;5111882;28;20031;-48
2022/10/27 07:42:09;;;;;;;15.85;2.92;;;15.90;99.90;;;;;;5111566;28;20107;-52
2022/10/27 07:44:34;;;;;;;10.52;2.90;;;15.90;99.90;;;;;;5111789;28;20019;-50
2022/10/27 07:47:00;;;;;;;15.25;3.50;;;16.00;99.90;;;;;;5111486;28;20032;-54
2022/10/27 07:49:25;;;;;;;13.02;2.72;;;15.90;99.90;;;;;;5111685;28;20067;-51
2022/10/27 07:51:51;;;;;;;12.98;3.03;;;15.90;99.90;;;;;;5111622;28;20088;-51
2022/10/27 07:54:16;;;;;;;9.80;2.97;;;15.90;99.90;;;;;;5111465;28;20047;-59
2022/10/27 07:56:42;;;;;;;11.05;2.80;;;15.90;99.90;;;;;;5111026;28;20024;-50
2022/10/27 07:59:08;;;;;;;10.05;2.58;;;16.00;99.90;;;;;;5126582;27;20024;-55
2022/10/27 08:01:33;;;;;;;13.43;2.70;;;16.00;99.90;;;;;;5111319;28;20020;-57
2022/10/27 08:03:59;;;;;;;7.65;2.55;;;16.00;99.90;;;;;;5122467;27;20066;-51
2022/10/27 08:06:24;;;;;;;13.25;3.28;;;16.00;99.90;;;;;;5131853;27;20027;-55
2022/10/27 08:08:50;;;;;;;11.07;3.97;;;16.00;99.90;;;;;;5124881;27;20495;-49
2022/10/27 08:11:16;;;;;;;15.23;3.78;;;16.10;99.90;;;;;;5129621;27;20031;-55
2022/10/27 08:13:41;;;;;;;16.17;3.35;;;16.20;99.90;;;;;;5129393;27;20023;-52
2022/10/27 08:16:07;;;;;;;12.40;3.03;;;16.30;99.90;;;;;;5121807;27;20037;-50
2022/10/27 08:18:33;;;;;;;18.13;3.38;;;16.40;99.90;;;;;;5127559;27;20113;-59
2022/10/27 08:20:58;;;;;;;16.02;3.72;;;16.40;99.90;;;;;;5125680;27;20025;-47
2022/10/27 08:23:24;;;;;;;13.95;4.00;;;16.50;99.90;;;;;;5110022;28;20035;-46
2022/10/27 08:25:51;;;;;;;10.63;3.10;;;16.50;99.90;;;;;;5118896;28;20023;-45
2022/10/27 08:28:16;;;;;;;13.68;3.10;;;16.60;99.90;;;;;;5129157;27;20035;-51
2022/10/27 08:30:42;;;;;;;13.15;3.80;;;16.70;99.90;;;;;;5122468;27;20432;-53
2022/10/27 08:33:09;;;;;;;15.07;3.55;;;16.80;99.90;;;;;;5108420;28;20111;-45
2022/10/27 08:35:35;;;;;;;15.82;3.35;;;17.00;99.90;;;;;;5106141;28;20098;-47
2022/10/27 08:38:01;;;;;;;10.07;3.25;;;17.10;99.90;;;;;;5125519;28;20559;-50
2022/10/27 08:40:55;;;;;;;7.95;3.30;;;17.00;99.90;;;;;;5109820;28;20035;-51
2022/10/27 08:43:41;;;;;;;12.77;3.50;;;17.00;99.90;;;;;;5117965;28;20110;-57
2022/10/27 08:46:21;;;;;;;16.88;5.80;;;17.10;99.90;;;;;;5117875;28;20110;-48
2022/10/27 08:48:50;;;;;;;10.75;3.28;;;17.20;99.90;;;;;;5111267;27;20483;-49
2022/10/27 08:51:20;;;;;;;11.60;3.30;;;17.30;99.90;;;;;;5121098;28;20024;-50
2022/10/27 08:53:50;;;;;;;13.90;4.50;;;17.40;99.90;;;;;;5115331;28;20031;-48
2022/10/27 08:56:16;;;;;;;;;;;17.70;99.90;;;;;;5112976;28;20034;-50
2022/10/27 08:58:44;;;;;;;7.68;2.60;;;19.30;99.90;;;;;;5109210;28;19908;-46
2022/10/27 09:01:37;;;;;;;10.83;2.70;;;20.80;99.90;;;;;;5108554;28;20028;-49
2022/10/27 09:04:22;;;;;;;11.07;2.85;;;20.80;99.90;;;;;;5103616;28;20122;-48
2022/10/27 09:07:06;;;;;;;11.45;2.78;;;20.50;99.90;;;;;;5109900;28;20076;-46
2022/10/27 09:09:43;;;;;;;14.00;3.58;;;20.00;99.90;;;;;;5099809;28;20129;-49
2022/10/27 09:12:19;;;;;;;10.27;2.63;;;20.40;99.90;;;;;;5113846;28;20054;-45
2022/10/27 09:15:18;;;;;;;16.05;2.70;;;21.70;99.90;;;;;;5113846;28;20024;-47
2022/10/27 09:18:09;;;;;;;12.90;2.83;;;23.10;99.90;;;;;;5105918;28;20019;-49
2022/10/27 09:20:41;;;;;;;11.30;2.42;;;22.90;99.90;;;;;;5071625;28;20761;-50
2022/10/27 09:23:13;;;;;;;10.95;2.63;;;23.10;99.90;;;;;;5113673;28;20027;-49
2022/10/27 09:25:40;;;;;;;9.65;2.80;;;23.60;99.90;;;;;;5095164;28;20510;-49
2022/10/27 09:28:16;;;;;;;12.98;2.53;;;24.60;99.90;;;;;;5110997;27;20085;-47
2022/10/27 09:30:44;;;;;;;13.38;3.25;;;25.50;99.90;;;;;;5095620;28;20085;-48
2022/10/27 09:33:18;;;;;;;9.90;2.42;;;26.30;99.90;;;;;;5094889;28;20020;-46
2022/10/27 09:35:44;;;;;;;9.50;2.47;;;26.90;99.90;;;;;;5094359;28;20020;-47
2022/10/27 09:38:19;;;;;;;12.40;2.75;;;27.10;99.90;;;;;;5095043;28;20035;-46
2022/10/27 09:40:45;;;;;;;9.73;2.88;;;27.60;99.90;;;;;;5095685;28;20012;-46
2022/10/27 09:43:11;;;;;;;9.23;2.58;;;27.50;99.20;;;;;;5101363;28;20030;-45
2022/10/27 09:45:37;;;;;;;11.70;2.92;;;27.80;98.10;;;;;;5098740;28;20020;-51
2022/10/27 09:48:05;;;;;;;10.50;2.72;;;28.30;97.10;;;;;;5094908;28;20028;-52
2022/10/27 09:50:37;;;;;;;9.40;2.67;;;28.30;96.20;;;;;;5094157;28;20036;-44
2022/10/27 09:53:03;;;;;;;9.38;2.55;;;28.50;95.50;;;;;;5100564;28;20020;-54
2022/10/27 09:55:49;;;;;;;11.93;2.38;;;28.80;93.70;;;;;;5104871;28;20024;-49
2022/10/27 09:58:15;;;;;;;9.35;2.50;;;28.70;95.00;;;;;;5103501;28;20393;-49
2022/10/27 10:00:41;;;;;;;10.65;2.83;;;28.50;94.70;;;;;;5107436;28;20395;-47
2022/10/27 10:03:20;;;;;;;11.88;2.47;;;28.30;93.10;;;;;;5103603;28;20027;-47
2022/10/27 10:06:01;;;;;;;9.90;2.63;;;28.20;94.00;;;;;;5095522;28;20111;-52
2022/10/27 10:08:29;;;;;;;10.43;2.55;;;28.50;94.20;;;;;;5096319;28;20107;-52
2022/10/27 10:11:03;;;;;;;11.68;2.72;;;28.50;93.00;;;;;;5097493;27;20664;-50
2022/10/27 10:13:36;;;;;;;10.10;2.75;;;28.70;92.10;;;;;;5111312;28;20032;-47
2022/10/27 10:16:08;;;;;;;10.63;2.35;;;28.90;91.70;;;;;;5111367;28;20479;-50
2022/10/27 10:18:34;;;;;;;8.70;3.00;;;29.10;92.10;;;;;;5104921;28;20484;-51
2022/10/27 10:21:04;;;;;;;8.13;2.33;;;29.40;91.10;;;;;;5111498;28;20023;-53
2022/10/27 10:23:51;;;;;;;7.53;2.30;;;30.10;90.90;;;;;;5103951;28;20507;-50
2022/10/27 10:26:27;;;;;;;10.73;2.67;;;30.00;90.00;;;;;;5101495;28;20027;-51
2022/10/27 10:29:12;;;;;;;7.78;2.17;;;29.80;90.10;;;;;;5112746;28;20111;-49
2022/10/27 10:31:37;;;;;;;9.07;2.55;;;29.00;89.90;;;;;;5113077;28;20553;-48
2022/10/27 10:34:31;;;;;;;9.50;2.88;;;29.40;90.80;;;;;;5112931;28;20020;-53
2022/10/27 10:36:57;;;;;;;12.43;2.80;;;29.80;90.20;;;;;;5113146;28;20043;-57
2022/10/27 10:39:25;;;;;;;9.88;2.95;;;29.70;87.00;;;;;;5112902;28;20078;-55
2022/10/27 10:42:15;;;;;;;9.68;2.88;;;29.40;87.90;;;;;;5111765;28;20111;-52
2022/10/27 10:44:40;;;;;;;6.82;2.40;;;29.80;88.80;;;;;;5110746;28;20043;-54
2022/10/27 10:47:26;;;;;;;10.65;2.47;;;29.50;89.60;;;;;;5111111;28;20024;-54
2022/10/27 10:50:01;;;;;;;9.80;2.47;;;29.60;85.90;;;;;;5110922;28;20085;-53
2022/10/27 10:52:36;;;;;;;11.93;2.70;;;29.50;88.80;;;;;;5110898;28;20035;-53
2022/10/27 10:55:24;;;;;;;13.40;3.17;;;29.20;87.20;;;;;;5110716;28;20042;-50
2022/10/27 10:57:53;;;;;;;8.37;2.40;;;28.90;89.60;;;;;;5105275;28;20024;-55
2022/10/27 11:00:20;;;;;;;10.50;2.63;;;29.20;89.40;;;;;;5120164;27;20050;-52
2022/10/27 11:02:54;;;;;;;10.73;2.35;;;29.20;90.20;;;;;;5115126;27;20047;-46
2022/10/27 11:05:24;;;;;;;9.93;2.67;;;29.10;89.80;;;;;;5109797;27;20076;-54
2022/10/27 11:07:50;;;;;;;12.27;2.50;;;29.30;89.80;;;;;;5123117;27;20088;-50
2022/10/27 11:10:30;;;;;;;10.05;2.47;;;29.20;89.00;;;;;;5126684;27;20031;-52
2022/10/27 11:13:11;;;;;;;9.20;2.50;;;29.60;88.30;;;;;;5124053;27;20035;-54
2022/10/27 11:15:55;;;;;;;10.95;2.17;;;29.80;88.40;;;;;;5120762;27;20027;-59
2022/10/27 11:18:25;;;;;;;9.52;2.30;;;29.60;88.40;;;;;;5124621;27;20024;-52
2022/10/27 11:21:03;;;;;;;9.43;3.47;;;28.60;87.90;;;;;;5125421;27;20029;-57
2022/10/27 11:23:41;;;;;;;10.27;2.53;;;28.80;89.20;;;;;;5123949;27;20110;-48
2022/10/27 11:26:08;;;;;;;15.60;3.22;;;28.30;91.20;;;;;;5122411;27;20016;-50
2022/10/27 11:28:55;;;;;;;8.93;2.55;;;28.30;91.00;;;;;;5126134;27;20054;-49
2022/10/27 11:31:36;;;;;;;14.25;2.72;;;28.30;90.40;;;;;;5115451;27;20110;-59
2022/10/27 11:34:06;;;;;;;10.40;2.45;;;28.30;90.80;;;;;;5111413;28;20045;-48
2022/10/27 11:36:38;;;;;;;10.25;2.63;;;27.70;91.30;;;;;;5130334;27;20025;-46
2022/10/27 11:39:35;;;;;;;11.23;2.67;;;27.30;91.60;;;;;;5115816;27;20023;-47
2022/10/27 11:42:21;;;;;;;9.57;2.30;;;27.40;92.00;;;;;;5125935;27;20043;-52
2022/10/27 11:45:17;;;;;;;11.75;2.78;;;27.70;91.10;;;;;;5109396;27;20834;-48
2022/10/27 11:47:52;;;;;;;13.00;3.03;;;28.00;90.60;;;;;;5117227;27;20031;-50
2022/10/27 11:50:24;;;;;;;10.55;2.60;;;28.40;91.10;;;;;;5100711;27;20035;-51
2022/10/27 11:52:56;;;;;;;15.23;3.08;;;28.00;90.40;;;;;;5121298;27;20030;-53
2022/10/27 11:55:29;;;;;;;9.98;2.50;;;27.50;91.60;;;;;;5121849;27;20507;-51
2022/10/27 11:58:12;;;;;;;13.70;3.38;;;26.90;92.80;;;;;;5119671;27;20394;-57
2022/10/27 12:01:19;;;;;;;14.00;2.92;;;26.60;92.50;;;;;;5125348;27;20047;-54
2022/10/27 12:03:48;;;;;;;11.45;2.88;;;26.60;92.80;;;;;;5108277;27;20118;-49
2022/10/27 12:06:22;;;;;;;11.60;2.70;;;26.70;93.10;;;;;;5125276;27;20491;-47
2022/10/27 12:09:03;;;;;;;10.85;2.80;;;26.90;92.30;;;;;;5121219;27;20043;-48
2022/10/27 12:11:55;;;;;;;11.25;3.25;;;26.90;93.40;;;;;;5124852;27;20120;-49
2022/10/27 12:14:30;;;;;;;26.30;3.88;;;26.80;92.50;;;;;;5117553;27;20039;-51
2022/10/27 12:17:14;;;;;;;10.63;2.53;;;26.80;92.90;;;;;;5110763;27;20019;-49
2022/10/27 12:19:43;;;;;;;11.20;2.67;;;26.50;92.90;;;;;;5109981;28;20077;-46
2022/10/27 12:22:40;;;;;;;12.32;3.13;;;26.40;92.80;;;;;;5104452;28;20519;-48
2022/10/27 12:25:09;;;;;;;11.32;2.72;;;26.00;94.30;;;;;;5108333;28;20562;-53
2022/10/27 12:27:44;;;;;;;12.65;2.92;;;26.20;94.20;;;;;;5108773;28;20450;-50
2022/10/27 12:30:20;;;;;;;9.73;2.58;;;25.80;94.40;;;;;;5117661;28;20043;-52
2022/10/27 12:32:46;;;;;;;13.25;3.00;;;25.40;95.30;;;;;;5113333;27;20564;-47
2022/10/27 12:35:23;;;;;;;13.82;3.17;;;25.10;94.90;;;;;;5111988;28;20118;-59
2022/10/27 12:38:15;;;;;;;14.90;3.20;;;24.50;96.50;;;;;;5111173;28;20369;-59
2022/10/27 12:41:08;;;;;;;12.60;2.90;;;24.20;96.40;;;;;;5122927;28;20466;-54
2022/10/27 12:43:43;;;;;;;15.52;3.33;;;23.80;97.50;;;;;;5096990;28;20023;-57
2022/10/27 12:46:22;;;;;;;14.05;3.20;;;23.20;99.30;;;;;;5131010;27;20054;-56
2022/10/27 12:48:48;;;;;;;14.27;3.55;;;22.70;99.80;;;;;;5129747;27;20023;-54
2022/10/27 12:51:19;;;;;;;12.02;3.72;;;22.50;99.90;;;;;;5116878;27;20035;-54
2022/10/27 12:53:57;;;;;;;14.20;3.25;;;22.10;99.90;;;;;;5118588;27;20030;-54
2022/10/27 12:56:22;;;;;;;12.73;3.10;;;22.00;99.90;;;;;;5119766;27;20027;-54